Time;durP1;ratioP1;P1;durP2;ratioP2;P2;SDS_P1;SDS_P2;PMS_P1;PMS_P2;Temp;Humidity;BMP_temperature;BMP_pressure;BME280_temperature;BME280_humidity;BME280_pressure;Samples;Min_cycle;Max_cycle;Signal;HPM_P1;HPM_P2
2024/01/19 00:02:17;;;;;;;;;;;;;;;6.22;89.71;97481.38;4410065;32;32054;-90
2024/01/19 00:04:45;;;;;;;;;;;;;;;6.22;90.16;97470.22;4409908;32;32681;-92
2024/01/19 00:07:12;;;;;;;;;;;;;;;6.58;87.11;97479.72;4408215;32;34383;-90
2024/01/19 00:09:39;;;;;;;;;;;;;;;6.12;88.60;97483.91;4422215;32;33381;-88
2024/01/19 00:12:07;;;;;;;;;;;;;;;6.41;87.41;97494.28;4422402;32;32872;-89
2024/01/19 00:14:34;;;;;;;;;;;;;;;6.21;87.75;97496.78;4421788;32;34663;-88
2024/01/19 00:17:02;;;;;;;;;;;;;;;6.24;87.22;97510.50;4422216;32;33633;-91
2024/01/19 00:19:32;;;;;;;;;;;;;;;6.34;86.33;97520.00;4421526;32;33234;-90
2024/01/19 00:21:59;;;;;;;;;;;;;;;5.93;87.53;97529.25;4416794;32;33822;-91
2024/01/19 00:24:27;;;;;;;;;;;;;;;6.20;85.69;97544.81;4416978;32;32876;-89
2024/01/19 00:26:57;;;;;;;;;;;;;;;5.65;88.18;97551.38;4436166;32;35026;-88
2024/01/19 00:29:25;;;;;;;;;;;;;;;5.66;88.71;97559.09;4434857;32;33675;-89
2024/01/19 00:31:52;;;;;;;;;;;;;;;5.99;85.90;97573.88;4422070;32;32445;-87
2024/01/19 00:34:20;;;;;;;;;;;;;;;5.62;87.12;97570.19;4421962;32;33216;-90
2024/01/19 00:36:47;;;;;;;;;;;;;;;5.58;86.57;97569.31;4419057;32;33668;-88
2024/01/19 00:39:15;;;;;;;;;;;;;;;5.39;85.55;97584.59;4406708;32;33489;-89
2024/01/19 00:41:42;;;;;;;;;;;;;;;5.64;84.11;97583.06;4409218;32;32508;-89
2024/01/19 00:44:10;;;;;;;;;;;;;;;5.49;83.38;97600.13;4406768;32;34071;-88
2024/01/19 00:46:37;;;;;;;;;;;;;;;5.26;83.08;97617.88;4410066;32;34119;-88
2024/01/19 00:49:05;;;;;;;;;;;;;;;5.20;83.86;97625.56;4406475;32;34701;-87
2024/01/19 00:51:32;;;;;;;;;;;;;;;5.33;83.54;97632.50;4423590;32;32888;-92
2024/01/19 00:53:59;;;;;;;;;;;;;;;5.35;83.02;97638.53;4436255;32;33241;-92
2024/01/19 00:56:27;;;;;;;;;;;;;;;5.39;81.50;97633.44;4422675;32;33737;-89
2024/01/19 00:58:54;;;;;;;;;;;;;;;5.53;81.47;97642.09;4407563;32;34376;-89
2024/01/19 01:01:22;;;;;;;;;;;;;;;5.64;80.48;97648.19;4428032;32;34599;-89
2024/01/19 01:03:49;;;;;;;;;;;;;;;5.32;81.22;97648.78;4410703;32;33005;-87
2024/01/19 01:06:17;;;;;;;;;;;;;;;4.92;81.86;97647.53;4420354;32;34140;-89
2024/01/19 01:08:45;;;;;;;;;;;;;;;5.05;80.80;97645.97;4418523;32;34863;-88
2024/01/19 01:11:12;;;;;;;;;;;;;;;4.92;80.19;97651.81;4432837;32;33717;-88
2024/01/19 01:13:40;;;;;;;;;;;;;;;4.33;80.66;97665.66;4432358;32;33795;-91
2024/01/19 01:16:08;;;;;;;;;;;;;;;4.25;79.70;97663.00;4424001;32;34646;-91
2024/01/19 01:18:35;;;;;;;;;;;;;;;4.54;76.98;97670.19;4409599;32;33037;-91
2024/01/19 01:21:03;;;;;;;;;;;;;;;3.66;79.81;97675.78;4422826;32;33453;-90
2024/01/19 01:23:31;;;;;;;;;;;;;;;4.17;77.99;97690.25;4436647;32;33227;-91
2024/01/19 01:25:58;;;;;;;;;;;;;;;4.34;76.76;97698.16;4419844;32;33274;-90
2024/01/19 01:28:26;;;;;;;;;;;;;;;3.89;77.65;97699.22;4414113;32;33699;-90
2024/01/19 01:30:53;;;;;;;;;;;;;;;3.65;77.86;97699.69;4410932;32;32591;-90
2024/01/19 01:33:21;;;;;;;;;;;;;;;4.01;76.05;97704.53;4408432;32;33794;-89
2024/01/19 01:35:48;;;;;;;;;;;;;;;3.63;77.31;97719.28;4420540;32;34306;-89
2024/01/19 01:38:24;;;;;;;;;;;;;;;3.49;78.04;97726.78;4437706;32;34387;-90
2024/01/19 01:40:53;;;;;;;;;;;;;;;2.94;78.29;97728.28;4418959;32;32399;-91
2024/01/19 01:43:22;;;;;;;;;;;;;;;2.74;78.83;97750.06;4408230;32;33512;-89
2024/01/19 01:45:50;;;;;;;;;;;;;;;3.06;77.80;97748.16;4420903;32;35198;-88
2024/01/19 01:48:18;;;;;;;;;;;;;;;3.03;77.04;97755.75;4407696;32;33193;-91
2024/01/19 01:50:46;;;;;;;;;;;;;;;2.89;77.58;97752.94;4422136;32;32794;-91
2024/01/19 01:53:13;;;;;;;;;;;;;;;3.19;76.62;97755.25;4435748;32;34619;-88
2024/01/19 01:55:41;;;;;;;;;;;;;;;2.43;78.05;97754.53;4435515;32;33745;-88
2024/01/19 01:58:08;;;;;;;;;;;;;;;2.80;77.23;97743.38;4436249;32;34368;-89
2024/01/19 02:00:36;;;;;;;;;;;;;;;2.63;77.37;97749.84;4423171;32;32099;-89
2024/01/19 02:03:04;;;;;;;;;;;;;;;2.44;77.89;97752.00;4422697;32;32976;-89
2024/01/19 02:05:31;;;;;;;;;;;;;;;2.55;77.91;97757.34;4435570;32;33814;-89
2024/01/19 02:07:59;;;;;;;;;;;;;;;2.65;77.60;97763.50;4433274;32;34355;-90
2024/01/19 02:10:26;;;;;;;;;;;;;;;2.42;78.36;97768.13;4423391;32;32852;-90
2024/01/19 02:12:54;;;;;;;;;;;;;;;2.50;78.16;97778.53;4422599;32;33066;-89
2024/01/19 02:15:22;;;;;;;;;;;;;;;2.60;78.23;97783.03;4422941;32;33231;-89
2024/01/19 02:17:50;;;;;;;;;;;;;;;2.40;77.63;97791.13;4423164;32;33873;-91
2024/01/19 02:20:18;;;;;;;;;;;;;;;2.64;76.90;97790.81;4429238;32;33452;-91
2024/01/19 02:22:46;;;;;;;;;;;;;;;2.44;76.94;97787.81;4416939;32;32867;-90
2024/01/19 02:25:13;;;;;;;;;;;;;;;2.21;77.71;97788.97;4436030;32;34239;-92
2024/01/19 02:27:40;;;;;;;;;;;;;;;1.86;78.24;97806.03;4421854;32;33129;-89
2024/01/19 02:30:09;;;;;;;;;;;;;;;1.73;78.30;97802.28;4397104;32;33834;-90
2024/01/19 02:32:36;;;;;;;;;;;;;;;1.85;77.48;97810.25;4422222;32;33876;-91
2024/01/19 02:35:04;;;;;;;;;;;;;;;1.93;77.47;97806.22;4432722;32;34794;-90
2024/01/19 02:37:32;;;;;;;;;;;;;;;2.06;77.27;97824.41;4420108;32;34372;-90
2024/01/19 02:40:00;;;;;;;;;;;;;;;1.97;76.70;97813.94;4407565;32;32809;-91
2024/01/19 02:42:29;;;;;;;;;;;;;;;1.56;77.85;97827.41;4425791;32;33494;-91
2024/01/19 02:44:59;;;;;;;;;;;;;;;1.39;78.48;97834.59;4422899;32;33260;-90
2024/01/19 02:47:27;;;;;;;;;;;;;;;2.02;75.83;97827.72;4422517;32;33978;-88
2024/01/19 02:49:56;;;;;;;;;;;;;;;1.44;78.13;97843.28;4428185;32;33589;-89
2024/01/19 02:52:23;;;;;;;;;;;;;;;1.66;77.71;97856.59;4421490;32;34178;-90
2024/01/19 02:54:51;;;;;;;;;;;;;;;2.12;76.39;97865.44;4410536;32;34196;-87
2024/01/19 02:57:18;;;;;;;;;;;;;;;2.23;74.48;97860.59;4410200;32;32934;-90
2024/01/19 02:59:46;;;;;;;;;;;;;;;1.74;76.40;97870.44;4422847;32;33455;-90
2024/01/19 03:02:14;;;;;;;;;;;;;;;1.82;76.60;97874.09;4422535;32;34336;-91
2024/01/19 03:04:41;;;;;;;;;;;;;;;1.76;76.79;97871.34;4419691;32;34408;-89
2024/01/19 03:07:09;;;;;;;;;;;;;;;1.74;76.15;97877.25;4435948;32;32733;-89
2024/01/19 03:09:39;;;;;;;;;;;;;;;2.02;75.35;97878.84;4435897;32;33276;-91
2024/01/19 03:12:06;;;;;;;;;;;;;;;1.75;76.06;97879.84;4436146;32;33994;-90
2024/01/19 03:14:35;;;;;;;;;;;;;;;2.11;73.85;97886.72;4434582;32;34957;-90
2024/01/19 03:17:04;;;;;;;;;;;;;;;1.43;76.74;97895.16;4421760;32;33403;-89
2024/01/19 03:19:32;;;;;;;;;;;;;;;1.49;75.91;97901.28;4427769;32;33619;-89
2024/01/19 03:22:00;;;;;;;;;;;;;;;1.42;76.44;97906.19;4421204;32;34149;-88
2024/01/19 03:24:27;;;;;;;;;;;;;;;1.90;75.65;97903.25;4409878;32;33286;-89
2024/01/19 03:26:54;;;;;;;;;;;;;;;1.86;74.82;97911.66;4422558;32;33649;-88
2024/01/19 03:29:23;;;;;;;;;;;;;;;1.94;74.38;97909.31;4422800;32;33073;-88
2024/01/19 03:31:50;;;;;;;;;;;;;;;1.58;75.34;97927.91;4409357;32;34754;-89
2024/01/19 03:34:17;;;;;;;;;;;;;;;1.36;75.79;97928.97;4436075;32;33897;-88
2024/01/19 03:36:45;;;;;;;;;;;;;;;1.51;75.60;97917.47;4436443;32;33876;-89
2024/01/19 03:39:12;;;;;;;;;;;;;;;1.85;73.88;97920.13;4436975;32;33498;-91
2024/01/19 03:41:39;;;;;;;;;;;;;;;1.51;74.28;97931.12;4436724;32;33506;-90
2024/01/19 03:44:07;;;;;;;;;;;;;;;1.66;74.87;97930.69;4436622;32;35418;-91
2024/01/19 03:46:34;;;;;;;;;;;;;;;1.32;74.98;97911.84;4435344;32;34201;-91
2024/01/19 03:49:05;;;;;;;;;;;;;;;1.41;74.93;97929.16;4408775;32;32734;-91
2024/01/19 03:51:33;;;;;;;;;;;;;;;1.33;74.66;97931.47;4435492;32;33728;-92
2024/01/19 03:54:00;;;;;;;;;;;;;;;1.34;74.80;97932.34;4435351;32;34177;-91
2024/01/19 03:56:27;;;;;;;;;;;;;;;1.41;73.91;97934.25;4422205;32;33415;-91
2024/01/19 03:58:56;;;;;;;;;;;;;;;1.36;74.90;97936.66;4436417;32;33227;-90
2024/01/19 04:01:23;;;;;;;;;;;;;;;1.28;74.97;97937.25;4436573;32;34802;-91
2024/01/19 04:03:51;;;;;;;;;;;;;;;1.34;74.82;97940.84;4435280;32;34041;-89
2024/01/19 04:06:18;;;;;;;;;;;;;;;1.19;75.09;97936.16;4436428;32;34325;-89
2024/01/19 04:08:45;;;;;;;;;;;;;;;1.32;74.87;97922.06;4435117;32;32626;-89
2024/01/19 04:11:13;;;;;;;;;;;;;;;1.64;73.94;97932.34;4436166;32;33969;-90
2024/01/19 04:13:42;;;;;;;;;;;;;;;1.26;74.35;97939.78;4436196;32;34194;-89
2024/01/19 04:16:10;;;;;;;;;;;;;;;1.46;73.57;97953.97;4436417;32;34034;-90
2024/01/19 04:18:47;;;;;;;;;;;;;;;1.17;74.70;97953.09;4411614;32;33098;-90
2024/01/19 04:21:14;;;;;;;;;;;;;;;1.14;75.06;97954.72;4419730;32;33841;-89
2024/01/19 04:23:44;;;;;;;;;;;;;;;1.26;74.62;97962.75;4419708;32;34355;-90
2024/01/19 04:26:12;;;;;;;;;;;;;;;1.30;74.13;97968.81;4422381;32;35123;-90
2024/01/19 04:28:40;;;;;;;;;;;;;;;1.62;73.67;97985.06;4406426;32;32817;-89
2024/01/19 04:31:07;;;;;;;;;;;;;;;1.66;73.21;97992.00;4426300;32;34039;-90
2024/01/19 04:33:35;;;;;;;;;;;;;;;1.42;73.94;97989.59;4435137;32;33603;-92
2024/01/19 04:36:03;;;;;;;;;;;;;;;1.36;74.13;98018.34;4422165;32;34030;-93
2024/01/19 04:38:30;;;;;;;;;;;;;;;1.61;73.54;98019.09;4423253;32;32341;-92
2024/01/19 04:40:57;;;;;;;;;;;;;;;1.50;74.29;98025.59;4419552;32;33911;-91
2024/01/19 04:43:25;;;;;;;;;;;;;;;1.32;74.21;98036.97;4406717;32;33537;-93
2024/01/19 04:45:52;;;;;;;;;;;;;;;1.42;74.39;98031.31;4409503;32;33431;-90
2024/01/19 04:48:19;;;;;;;;;;;;;;;1.36;74.16;98033.69;4434345;32;34298;-91
2024/01/19 04:50:47;;;;;;;;;;;;;;;1.58;73.28;98026.66;4434858;32;34062;-90
2024/01/19 04:53:14;;;;;;;;;;;;;;;1.54;73.09;98035.06;4411652;32;34844;-92
2024/01/19 04:55:42;;;;;;;;;;;;;;;1.78;72.59;98034.91;4421867;32;33008;-91
2024/01/19 04:58:09;;;;;;;;;;;;;;;1.25;73.33;98036.72;4421691;32;33451;-90
2024/01/19 05:00:37;;;;;;;;;;;;;;;1.43;74.11;98066.25;4420723;32;34146;-87
2024/01/19 05:03:04;;;;;;;;;;;;;;;1.19;73.50;98058.69;4433652;32;33609;-90
2024/01/19 05:05:32;;;;;;;;;;;;;;;1.55;72.62;98052.13;4407800;32;34716;-81
2024/01/19 05:08:00;;;;;;;;;;;;;;;1.01;74.14;98062.34;4409966;32;33274;-87
2024/01/19 05:10:28;;;;;;;;;;;;;;;1.26;72.71;98062.31;4419074;32;33937;-91
2024/01/19 05:12:55;;;;;;;;;;;;;;;1.16;73.46;98062.84;4426294;32;34435;-90
2024/01/19 05:15:22;;;;;;;;;;;;;;;1.21;72.99;98074.06;4435078;32;33980;-90
2024/01/19 05:17:50;;;;;;;;;;;;;;;1.35;72.73;98066.84;4397709;32;33739;-83
2024/01/19 05:20:18;;;;;;;;;;;;;;;1.33;73.36;98073.59;4432334;32;34024;-90
2024/01/19 05:22:45;;;;;;;;;;;;;;;1.29;72.74;98080.28;4418500;32;34082;-90
2024/01/19 05:25:18;;;;;;;;;;;;;;;1.44;72.17;98073.13;4406571;32;34255;-89
2024/01/19 05:27:45;;;;;;;;;;;;;;;1.52;72.69;98090.38;4434464;32;34161;-89
2024/01/19 05:30:13;;;;;;;;;;;;;;;1.15;72.85;98101.94;4422989;32;34282;-87
2024/01/19 05:32:41;;;;;;;;;;;;;;;1.23;72.95;98086.88;4420575;32;34323;-89
2024/01/19 05:35:08;;;;;;;;;;;;;;;1.17;73.47;98110.50;4425093;32;34810;-88
2024/01/19 05:37:37;;;;;;;;;;;;;;;1.34;73.27;98111.94;4422476;32;33948;-90
2024/01/19 05:40:04;;;;;;;;;;;;;;;1.28;72.77;98106.62;4423334;32;33999;-89
2024/01/19 05:42:32;;;;;;;;;;;;;;;1.20;72.84;98101.28;4427406;32;33109;-89
2024/01/19 05:44:59;;;;;;;;;;;;;;;1.31;73.43;98116.06;4403530;32;783413;-90
2024/01/19 05:47:27;;;;;;;;;;;;;;;2.02;70.66;98099.53;4434409;32;34327;-93
2024/01/19 05:49:55;;;;;;;;;;;;;;;1.66;71.51;98105.25;4434881;32;34048;-91
2024/01/19 05:52:24;;;;;;;;;;;;;;;1.67;71.36;98095.94;4407131;32;34555;-90
2024/01/19 05:54:51;;;;;;;;;;;;;;;1.66;71.46;98102.72;4431275;32;34379;-89
2024/01/19 05:57:18;;;;;;;;;;;;;;;1.87;70.23;98112.72;4435527;32;33527;-93
2024/01/19 05:59:47;;;;;;;;;;;;;;;1.83;70.38;98118.56;4408284;32;34049;-93
2024/01/19 06:02:14;;;;;;;;;;;;;;;1.48;71.18;98124.25;4426448;32;34572;-93
2024/01/19 06:04:42;;;;;;;;;;;;;;;1.26;71.48;98123.59;4398413;32;33410;-90
2024/01/19 06:07:10;;;;;;;;;;;;;;;1.57;70.80;98134.78;4407917;32;33381;-91
2024/01/19 06:09:37;;;;;;;;;;;;;;;1.60;71.03;98130.66;4396474;32;33247;-89
2024/01/19 06:12:05;;;;;;;;;;;;;;;1.44;71.01;98143.75;4397301;32;34808;-90
2024/01/19 06:14:32;;;;;;;;;;;;;;;1.21;71.55;98148.09;4410220;32;34911;-91
2024/01/19 06:17:01;;;;;;;;;;;;;;;1.22;71.76;98152.41;4424391;32;33685;-93
2024/01/19 06:19:29;;;;;;;;;;;;;;;1.43;70.88;98152.22;4422477;32;33657;-92
2024/01/19 06:21:57;;;;;;;;;;;;;;;1.65;69.68;98164.00;4421901;32;34001;-91
2024/01/19 06:24:25;;;;;;;;;;;;;;;1.81;70.07;98178.97;4407867;32;33384;-90
2024/01/19 06:26:53;;;;;;;;;;;;;;;1.70;68.96;98183.78;4408196;32;32414;-92
2024/01/19 06:29:21;;;;;;;;;;;;;;;1.88;68.50;98198.78;4395299;32;34192;-88
2024/01/19 06:31:48;;;;;;;;;;;;;;;1.41;70.22;98198.16;4433115;32;34633;-89
2024/01/19 06:34:16;;;;;;;;;;;;;;;1.59;70.85;98204.66;4436927;32;34282;-89
2024/01/19 06:36:44;;;;;;;;;;;;;;;1.28;70.83;98193.44;4432608;32;32708;-90
2024/01/19 06:39:14;;;;;;;;;;;;;;;1.22;71.12;98200.91;4433077;32;34140;-89
2024/01/19 06:41:45;;;;;;;;;;;;;;;1.27;70.71;98201.91;4422285;32;34026;-94
2024/01/19 06:44:13;;;;;;;;;;;;;;;1.15;71.12;98202.37;4408331;32;34484;-92
2024/01/19 06:46:43;;;;;;;;;;;;;;;1.13;70.96;98200.56;4429310;32;32628;-93
2024/01/19 06:49:11;;;;;;;;;;;;;;;1.26;70.72;98209.53;4420694;32;33082;-94
2024/01/19 06:51:39;;;;;;;;;;;;;;;1.29;70.77;98207.97;4417577;32;33240;-93
2024/01/19 06:54:07;;;;;;;;;;;;;;;1.35;69.44;98220.91;4423210;32;34197;-93
2024/01/19 06:56:35;;;;;;;;;;;;;;;1.29;70.45;98230.03;4423126;32;33167;-92
2024/01/19 06:59:02;;;;;;;;;;;;;;;1.85;68.22;98228.50;4436042;32;33778;-91
2024/01/19 07:01:51;;;;;;;;;;;;;;;1.30;70.33;98248.00;4410675;32;33289;-93
2024/01/19 07:04:18;;;;;;;;;;;;;;;1.59;69.08;98258.31;4437125;32;34835;-94
2024/01/19 07:06:46;;;;;;;;;;;;;;;1.57;69.05;98267.62;4435829;32;34533;-93
2024/01/19 07:09:17;;;;;;;;;;;;;;;1.49;69.70;98286.94;4436850;32;33412;-93
2024/01/19 07:11:44;;;;;;;;;;;;;;;1.12;70.32;98289.06;4422950;32;33595;-92
2024/01/19 07:14:12;;;;;;;;;;;;;;;1.16;70.00;98306.22;4424258;32;34518;-94
2024/01/19 07:16:40;;;;;;;;;;;;;;;1.41;69.83;98297.75;4408244;32;32781;-92
2024/01/19 07:19:07;;;;;;;;;;;;;;;1.39;69.06;98304.47;4420642;32;34100;-92
2024/01/19 07:21:38;;;;;;;;;;;;;;;1.72;68.24;98313.25;4419845;32;35166;-92
2024/01/19 07:24:09;;;;;;;;;;;;;;;1.64;68.28;98310.44;4421329;32;35146;-91
2024/01/19 07:26:36;;;;;;;;;;;;;;;1.41;69.41;98315.63;4435655;32;33298;-92
2024/01/19 07:29:07;;;;;;;;;;;;;;;1.36;69.48;98319.69;4435687;32;33724;-93
2024/01/19 07:31:35;;;;;;;;;;;;;;;1.80;68.17;98327.16;4422826;32;33280;-92
2024/01/19 07:34:03;;;;;;;;;;;;;;;1.79;67.81;98320.31;4435880;32;34812;-92
2024/01/19 07:36:31;;;;;;;;;;;;;;;1.55;68.46;98322.88;4435286;32;32658;-93
2024/01/19 07:38:59;;;;;;;;;;;;;;;1.46;68.92;98336.22;4403664;32;33286;-93
2024/01/19 07:41:43;;;;;;;;;;;;;;;1.63;68.26;98344.44;4396495;32;34099;-91
2024/01/19 07:44:11;;;;;;;;;;;;;;;1.39;68.84;98355.53;4407445;32;33422;-92
2024/01/19 07:46:39;;;;;;;;;;;;;;;1.25;69.10;98359.31;4420127;32;33183;-94
2024/01/19 07:49:06;;;;;;;;;;;;;;;1.32;69.06;98374.00;4413641;32;33133;-94
2024/01/19 07:51:34;;;;;;;;;;;;;;;1.19;69.49;98377.81;4409689;32;33552;-92
2024/01/19 07:54:02;;;;;;;;;;;;;;;1.26;69.54;98373.81;4422549;32;33474;-92
2024/01/19 07:56:29;;;;;;;;;;;;;;;1.19;69.80;98382.06;4422437;32;32673;-93
2024/01/19 07:58:57;;;;;;;;;;;;;;;1.04;71.18;98387.47;4406788;32;32693;-92
2024/01/19 08:01:24;;;;;;;;;;;;;;;1.78;68.67;98382.44;4410118;32;33828;-91
2024/01/19 08:03:52;;;;;;;;;;;;;;;1.17;70.00;98378.56;4419705;32;35062;-92
2024/01/19 08:06:19;;;;;;;;;;;;;;;0.99;69.97;98363.47;4419541;32;33532;-90
2024/01/19 08:08:46;;;;;;;;;;;;;;;1.11;70.74;98369.00;4406752;32;33204;-90
2024/01/19 08:11:14;;;;;;;;;;;;;;;1.32;68.99;98355.28;4411004;32;32878;-90
2024/01/19 08:13:41;;;;;;;;;;;;;;;0.92;70.30;98349.59;4434957;32;34322;-90
2024/01/19 08:16:08;;;;;;;;;;;;;;;0.90;70.31;98356.31;4422133;32;32221;-84
2024/01/19 08:18:36;;;;;;;;;;;;;;;0.96;70.66;98358.22;4436301;32;33830;-91
2024/01/19 08:21:12;;;;;;;;;;;;;;;1.30;69.64;98359.47;4422020;32;33124;-92
2024/01/19 08:23:39;;;;;;;;;;;;;;;1.10;70.04;98361.28;4435090;32;35127;-90
2024/01/19 08:26:07;;;;;;;;;;;;;;;1.04;70.27;98358.53;4429508;32;34574;-89
2024/01/19 08:28:34;;;;;;;;;;;;;;;1.28;69.58;98382.38;4419579;32;35365;-81
2024/01/19 08:31:02;;;;;;;;;;;;;;;0.90;69.11;98397.12;4419937;32;34865;-89
2024/01/19 08:33:31;;;;;;;;;;;;;;;1.12;68.85;98408.16;4406775;32;33705;-90
2024/01/19 08:36:01;;;;;;;;;;;;;;;1.35;67.19;98398.81;4410640;32;33946;-91
2024/01/19 08:38:29;;;;;;;;;;;;;;;1.25;67.52;98410.38;4422109;32;34383;-90
2024/01/19 08:40:56;;;;;;;;;;;;;;;1.54;66.21;98408.00;4421943;32;33338;-91
2024/01/19 08:43:23;;;;;;;;;;;;;;;1.58;65.50;98413.28;4421878;32;33309;-85
2024/01/19 08:45:51;;;;;;;;;;;;;;;1.46;65.99;98413.69;4435809;32;34207;-89
2024/01/19 08:48:19;;;;;;;;;;;;;;;1.44;65.84;98420.47;4421845;32;34085;-91
2024/01/19 08:50:46;;;;;;;;;;;;;;;1.60;65.63;98415.91;4417358;32;33955;-89
2024/01/19 08:53:14;;;;;;;;;;;;;;;1.19;66.49;98421.22;4406205;32;33591;-90
2024/01/19 08:55:42;;;;;;;;;;;;;;;1.26;67.55;98421.47;4419224;32;33548;-93
2024/01/19 08:58:10;;;;;;;;;;;;;;;1.15;67.30;98419.38;4409696;32;33000;-92
2024/01/19 09:00:37;;;;;;;;;;;;;;;1.04;67.98;98414.66;4409312;32;33547;-91
2024/01/19 09:03:05;;;;;;;;;;;;;;;0.88;68.85;98418.31;4420179;32;34260;-92
2024/01/19 09:05:34;;;;;;;;;;;;;;;0.89;68.97;98423.47;4421774;32;34352;-92
2024/01/19 09:08:03;;;;;;;;;;;;;;;1.05;68.55;98427.47;4435494;32;33867;-92
2024/01/19 09:10:30;;;;;;;;;;;;;;;1.39;66.69;98431.31;4421699;32;34145;-91
2024/01/19 09:12:58;;;;;;;;;;;;;;;0.89;67.49;98431.13;4437051;32;33492;-92
2024/01/19 09:15:26;;;;;;;;;;;;;;;1.45;65.25;98432.41;4423707;32;33597;-92
2024/01/19 09:17:53;;;;;;;;;;;;;;;1.45;65.59;98440.06;4423593;32;34796;-92
2024/01/19 09:20:20;;;;;;;;;;;;;;;1.26;66.51;98450.41;4423982;32;34255;-92
2024/01/19 09:22:48;;;;;;;;;;;;;;;1.37;65.72;98464.47;4436221;32;34640;-93
2024/01/19 09:25:16;;;;;;;;;;;;;;;1.55;65.72;98463.38;4423638;32;33539;-92
2024/01/19 09:27:44;;;;;;;;;;;;;;;1.28;66.18;98474.31;4437688;32;34688;-91
2024/01/19 09:30:16;;;;;;;;;;;;;;;0.92;67.42;98476.31;4424046;32;34825;-90
2024/01/19 09:32:43;;;;;;;;;;;;;;;1.24;66.51;98487.75;4423994;32;34361;-92
2024/01/19 09:35:12;;;;;;;;;;;;;;;1.06;67.02;98484.50;4411164;32;31901;-94
2024/01/19 09:37:39;;;;;;;;;;;;;;;1.63;65.07;98477.31;4410632;32;33163;-91
2024/01/19 09:40:07;;;;;;;;;;;;;;;1.33;65.61;98484.72;4410724;32;34408;-93
2024/01/19 09:42:35;;;;;;;;;;;;;;;1.35;65.16;98478.84;4423566;32;35028;-92
2024/01/19 09:45:04;;;;;;;;;;;;;;;1.52;64.95;98488.84;4423321;32;32880;-92
2024/01/19 09:47:32;;;;;;;;;;;;;;;1.29;64.94;98487.94;4423603;32;33853;-91
2024/01/19 09:50:03;;;;;;;;;;;;;;;1.34;65.74;98504.31;4437274;32;34193;-91
2024/01/19 09:52:31;;;;;;;;;;;;;;;1.34;66.46;98504.31;4435846;32;33780;-92
2024/01/19 09:54:58;;;;;;;;;;;;;;;1.19;69.15;98512.25;4423243;32;33323;-92
2024/01/19 09:57:29;;;;;;;;;;;;;;;0.56;72.93;98508.84;4423292;32;34057;-91
2024/01/19 10:00:00;;;;;;;;;;;;;;;0.99;72.71;98513.19;4436403;32;34782;-92
2024/01/19 10:02:28;;;;;;;;;;;;;;;0.54;73.93;98506.25;4423416;32;34352;-92
2024/01/19 10:04:58;;;;;;;;;;;;;;;0.80;73.24;98517.53;4410513;32;32317;-90
2024/01/19 10:07:25;;;;;;;;;;;;;;;1.22;71.12;98520.03;4410492;32;33934;-90
2024/01/19 10:09:53;;;;;;;;;;;;;;;0.91;71.35;98508.63;4410190;32;34579;-90
2024/01/19 10:12:20;;;;;;;;;;;;;;;0.89;71.04;98515.34;4423295;32;34775;-92
2024/01/19 10:14:47;;;;;;;;;;;;;;;0.93;70.14;98506.13;4423495;32;32850;-93
2024/01/19 10:17:15;;;;;;;;;;;;;;;1.17;70.79;98514.72;4437138;32;33874;-90
2024/01/19 10:19:43;;;;;;;;;;;;;;;1.22;70.33;98514.94;4423092;32;33908;-93
2024/01/19 10:22:24;;;;;;;;;;;;;;;1.48;69.25;98517.59;4410331;32;33246;-92
2024/01/19 10:24:58;;;;;;;;;;;;;;;1.32;69.05;98526.38;4423353;32;33609;-90
2024/01/19 10:27:44;;;;;;;;;;;;;;;1.45;69.75;98546.47;4423240;32;34120;-90
2024/01/19 10:30:13;;;;;;;;;;;;;;;1.49;70.08;98560.25;4410473;32;34193;-93
2024/01/19 10:32:42;;;;;;;;;;;;;;;1.19;71.25;98569.28;4410554;32;33103;-90
2024/01/19 10:35:13;;;;;;;;;;;;;;;1.61;68.73;98570.91;4423363;32;33508;-93
2024/01/19 10:37:42;;;;;;;;;;;;;;;1.45;69.27;98580.53;4410148;32;34435;-93
2024/01/19 10:40:19;;;;;;;;;;;;;;;1.27;70.82;98579.81;4410282;32;33895;-89
2024/01/19 10:42:48;;;;;;;;;;;;;;;1.16;70.67;98587.03;4410265;32;34217;-91
2024/01/19 10:45:16;;;;;;;;;;;;;;;1.29;70.04;98592.63;4410125;32;33400;-93
2024/01/19 10:47:44;;;;;;;;;;;;;;;0.89;70.79;98614.87;4423393;32;34865;-89
2024/01/19 10:50:15;;;;;;;;;;;;;;;1.08;70.35;98618.19;4423016;32;33854;-92
2024/01/19 10:52:44;;;;;;;;;;;;;;;0.69;72.16;98628.47;4436876;32;35017;-92
2024/01/19 10:55:21;;;;;;;;;;;;;;;1.28;70.16;98637.72;4423051;32;33381;-92
2024/01/19 10:57:53;;;;;;;;;;;;;;;0.95;71.27;98662.75;4410229;32;33220;-91
2024/01/19 11:00:24;;;;;;;;;;;;;;;0.67;71.53;98661.56;4410518;32;34470;-92
2024/01/19 11:02:56;;;;;;;;;;;;;;;0.83;70.51;98668.19;4410431;32;33205;-93
2024/01/19 11:05:24;;;;;;;;;;;;;;;0.90;70.41;98664.22;4410896;32;32091;-94
2024/01/19 11:08:14;;;;;;;;;;;;;;;0.80;70.64;98665.53;4423009;32;34540;-92
2024/01/19 11:10:42;;;;;;;;;;;;;;;0.62;70.06;98665.59;4437207;32;34060;-92
2024/01/19 11:13:30;;;;;;;;;;;;;;;0.90;70.22;98680.41;4425677;32;33980;-92
2024/01/19 11:15:57;;;;;;;;;;;;;;;0.90;69.48;98675.28;4423017;32;33211;-91
2024/01/19 11:18:27;;;;;;;;;;;;;;;1.00;69.33;98673.16;4423006;32;33504;-92
2024/01/19 11:20:55;;;;;;;;;;;;;;;0.65;70.65;98698.03;4397492;32;33411;-90
2024/01/19 11:23:22;;;;;;;;;;;;;;;0.86;70.35;98687.88;4422937;32;35043;-89
2024/01/19 11:26:07;;;;;;;;;;;;;;;1.16;69.83;98684.06;4422675;32;33322;-92
2024/01/19 11:28:48;;;;;;;;;;;;;;;0.84;70.28;98687.81;4422841;32;34375;-93
2024/01/19 11:31:31;;;;;;;;;;;;;;;0.98;69.39;98693.50;4422709;32;33324;-90
2024/01/19 11:33:59;;;;;;;;;;;;;;;0.88;68.80;98681.16;4409513;32;33429;-85
2024/01/19 11:36:38;;;;;;;;;;;;;;;0.88;68.57;98691.38;4410041;32;32489;-89
2024/01/19 11:39:09;;;;;;;;;;;;;;;0.64;70.27;98696.25;4422596;32;33586;-90
2024/01/19 11:41:36;;;;;;;;;;;;;;;0.94;70.08;98701.81;4409967;32;34243;-91
2024/01/19 11:44:07;;;;;;;;;;;;;;;1.11;69.79;98685.56;4436533;32;35180;-93
2024/01/19 11:46:42;;;;;;;;;;;;;;;0.80;70.41;98693.59;4435185;32;34027;-92
2024/01/19 11:49:30;;;;;;;;;;;;;;;1.01;70.67;98701.28;4422621;32;34171;-90
2024/01/19 11:51:58;;;;;;;;;;;;;;;1.46;68.96;98707.44;4428805;32;34868;-91
2024/01/19 11:54:29;;;;;;;;;;;;;;;1.52;68.05;98704.28;4423068;32;34270;-89
2024/01/19 11:57:15;;;;;;;;;;;;;;;1.24;69.06;98701.38;4422655;32;33210;-90
2024/01/19 11:59:44;;;;;;;;;;;;;;;1.23;69.13;98697.97;4436345;32;34315;-91
2024/01/19 12:02:33;;;;;;;;;;;;;;;1.21;68.61;98697.91;4425195;32;34919;-89
2024/01/19 12:05:02;;;;;;;;;;;;;;;1.19;67.97;98688.44;4436657;32;34479;-89
2024/01/19 12:07:30;;;;;;;;;;;;;;;1.26;67.38;98695.53;4436581;32;33651;-88
2024/01/19 12:10:10;;;;;;;;;;;;;;;1.79;65.70;98707.06;4436478;32;34496;-88
2024/01/19 12:12:38;;;;;;;;;;;;;;;1.55;66.66;98714.59;4422314;32;34927;-89
2024/01/19 12:15:06;;;;;;;;;;;;;;;1.34;66.12;98717.16;4410442;32;33587;-93
2024/01/19 12:17:33;;;;;;;;;;;;;;;1.59;64.33;98719.06;4409859;32;33289;-93
2024/01/19 12:20:06;;;;;;;;;;;;;;;1.34;65.61;98724.81;4422877;32;34005;-94
2024/01/19 12:22:34;;;;;;;;;;;;;;;1.48;64.56;98730.50;4435240;32;33592;-94
2024/01/19 12:25:14;;;;;;;;;;;;;;;1.36;64.31;98732.53;4436226;32;35116;-94
2024/01/19 12:27:42;;;;;;;;;;;;;;;1.61;64.69;98726.78;4409814;32;32280;-93
2024/01/19 12:30:13;;;;;;;;;;;;;;;1.96;63.86;98725.63;4422578;32;33174;-92
2024/01/19 12:32:43;;;;;;;;;;;;;;;1.71;63.54;98734.00;4436335;32;34296;-94
2024/01/19 12:35:15;;;;;;;;;;;;;;;1.91;63.57;98725.44;4409655;32;33118;-90
2024/01/19 12:37:46;;;;;;;;;;;;;;;1.88;62.97;98727.87;4410385;32;33758;-92
2024/01/19 12:40:13;;;;;;;;;;;;;;;1.90;62.44;98730.50;4422330;32;33446;-91
2024/01/19 12:42:43;;;;;;;;;;;;;;;1.89;61.76;98732.16;4435986;32;33842;-95
2024/01/19 12:45:11;;;;;;;;;;;;;;;1.69;63.59;98740.72;4422477;32;34290;-90
2024/01/19 12:47:42;;;;;;;;;;;;;;;1.99;61.38;98748.75;4409626;32;32519;-89
2024/01/19 12:50:12;;;;;;;;;;;;;;;1.94;62.34;98755.38;4422254;32;34127;-93
2024/01/19 12:52:50;;;;;;;;;;;;;;;2.05;60.45;98766.91;4422016;32;34358;-93
2024/01/19 12:55:38;;;;;;;;;;;;;;;2.25;59.84;98777.91;4424806;32;35155;-93
2024/01/19 12:58:05;;;;;;;;;;;;;;;1.74;61.19;98785.22;4434614;32;33186;-90
2024/01/19 13:00:33;;;;;;;;;;;;;;;1.80;61.50;98798.25;4421151;32;34181;-88
2024/01/19 13:03:01;;;;;;;;;;;;;;;1.89;61.63;98790.09;4421813;32;34359;-89
2024/01/19 13:05:29;;;;;;;;;;;;;;;1.85;61.44;98791.66;4421843;32;34176;-90
2024/01/19 13:08:01;;;;;;;;;;;;;;;1.95;60.02;98793.78;4421694;32;32451;-90